Time;durP1;ratioP1;P1;durP2;ratioP2;P2;SDS_P1;SDS_P2;PMS_P1;PMS_P2;Temp;Humidity;BMP_temperature;BMP_pressure;BME280_temperature;BME280_humidity;BME280_pressure;Samples;Min_cycle;Max_cycle;Signal;HPM_P1;HPM_P2
2022/01/10 00:01:28;;;;;;;33.53;15.53;;;10.60;89.60;;;;;;5003592;28;20615;-76
2022/01/10 00:03:58;;;;;;;39.83;16.70;;;10.60;89.70;;;;;;5003585;28;20200;-77
2022/01/10 00:06:27;;;;;;;33.43;14.90;;;10.60;89.60;;;;;;5001093;28;20196;-77
2022/01/10 00:08:55;;;;;;;35.67;15.53;;;10.60;89.70;;;;;;5002625;28;20204;-76
2022/01/10 00:11:23;;;;;;;38.53;16.53;;;10.60;89.70;;;;;;4998245;28;21280;-76
2022/01/10 00:13:52;;;;;;;36.80;15.47;;;10.70;89.70;;;;;;5005454;28;20259;-76
2022/01/10 00:16:20;;;;;;;39.23;16.30;;;10.70;89.70;;;;;;5005415;28;20604;-76
2022/01/10 00:18:48;;;;;;;35.70;16.37;;;10.70;89.70;;;;;;5004079;28;20204;-76
2022/01/10 00:21:18;;;;;;;41.63;18.33;;;10.70;89.70;;;;;;5003068;28;21118;-76
2022/01/10 00:23:46;;;;;;;35.27;16.70;;;10.70;89.90;;;;;;5004139;28;20193;-76
2022/01/10 00:26:15;;;;;;;33.63;16.70;;;10.70;89.90;;;;;;5005774;28;20204;-77
2022/01/10 00:28:43;;;;;;;35.80;15.90;;;10.70;89.90;;;;;;5002605;28;20201;-76
2022/01/10 00:31:11;;;;;;;35.77;16.70;;;10.70;89.90;;;;;;5006253;28;20192;-77
2022/01/10 00:33:39;;;;;;;31.13;15.30;;;10.70;89.80;;;;;;5004858;28;20227;-76
2022/01/10 00:36:08;;;;;;;34.77;15.30;;;10.70;89.90;;;;;;5003937;28;20197;-76
2022/01/10 00:38:38;;;;;;;34.80;15.67;;;10.70;89.90;;;;;;5004533;28;20189;-77
2022/01/10 00:41:06;;;;;;;32.57;15.00;;;10.70;89.80;;;;;;5000101;28;20204;-76
2022/01/10 00:43:39;;;;;;;31.53;15.17;;;10.70;89.80;;;;;;5003277;28;20219;-77
2022/01/10 00:46:08;;;;;;;31.80;15.33;;;10.70;89.90;;;;;;4993634;28;20199;-76
2022/01/10 00:48:36;;;;;;;31.87;15.30;;;10.70;89.80;;;;;;5004622;28;20697;-76
2022/01/10 00:51:05;;;;;;;33.80;15.33;;;10.70;89.90;;;;;;5002291;28;20212;-76
2022/01/10 00:53:33;;;;;;;30.17;14.10;;;10.70;89.90;;;;;;5005927;28;20208;-77
2022/01/10 00:56:03;;;;;;;35.80;15.93;;;10.70;90.00;;;;;;5004715;28;20703;-77
2022/01/10 00:58:31;;;;;;;32.93;14.90;;;10.80;90.00;;;;;;5005448;28;20200;-77
2022/01/10 01:00:59;;;;;;;31.33;13.67;;;10.80;90.00;;;;;;5002225;28;20251;-77
2022/01/10 01:03:28;;;;;;;31.93;14.77;;;10.80;90.00;;;;;;4999677;28;20195;-77
2022/01/10 01:05:56;;;;;;;29.83;14.80;;;10.80;90.00;;;;;;5001661;28;20263;-77
2022/01/10 01:08:26;;;;;;;33.53;18.00;;;10.80;90.00;;;;;;5002378;28;20445;-77
2022/01/10 01:13:54;;;;;;;30.37;15.33;;;10.80;90.20;;;;;;4999066;28;20238;-77
2022/01/10 01:16:42;;;;;;;29.60;15.13;;;10.80;90.60;;;;;;5002897;28;20196;-77
2022/01/10 01:24:49;;;;;;;28.03;13.30;;;10.80;90.20;;;;;;5000849;28;20197;-77
2022/01/10 01:27:18;;;;;;;26.60;13.87;;;10.80;90.20;;;;;;5001677;28;20210;-77
2022/01/10 01:29:47;;;;;;;30.67;13.33;;;10.80;90.20;;;;;;5003875;28;20224;-77
2022/01/10 01:32:15;;;;;;;23.97;11.30;;;10.80;90.20;;;;;;5003902;28;20266;-77
2022/01/10 01:34:44;;;;;;;26.63;12.53;;;10.80;90.20;;;;;;5001512;28;20305;-77
2022/01/10 01:37:13;;;;;;;27.83;13.50;;;10.80;90.20;;;;;;4999303;28;20196;-77
2022/01/10 01:39:41;;;;;;;30.80;13.37;;;10.80;90.20;;;;;;5002296;28;20188;-77
2022/01/10 01:42:31;;;;;;;26.93;13.00;;;10.80;90.20;;;;;;5001122;28;20739;-77
2022/01/10 01:45:02;;;;;;;26.17;12.97;;;10.80;90.40;;;;;;5003041;28;20564;-77
2022/01/10 01:47:31;;;;;;;26.97;12.63;;;10.80;90.30;;;;;;5003181;28;20204;-77
2022/01/10 01:49:59;;;;;;;25.43;12.43;;;10.80;90.40;;;;;;5002876;28;20192;-77
2022/01/10 01:52:28;;;;;;;30.93;14.03;;;10.80;90.40;;;;;;5001693;28;20188;-77
2022/01/10 01:54:57;;;;;;;29.53;13.87;;;10.80;90.40;;;;;;5001164;28;20220;-77
2022/01/10 01:57:25;;;;;;;27.97;12.60;;;10.80;90.40;;;;;;4997091;28;20197;-77
2022/01/10 01:59:54;;;;;;;26.03;13.23;;;10.80;90.40;;;;;;5004393;28;20197;-77
2022/01/10 02:02:24;;;;;;;31.13;13.80;;;10.90;90.40;;;;;;5000620;28;20278;-77
2022/01/10 02:04:52;;;;;;;30.63;13.50;;;10.80;90.40;;;;;;5000557;28;20207;-77
2022/01/10 02:07:20;;;;;;;30.00;13.90;;;10.80;90.50;;;;;;4998935;28;20193;-77
2022/01/10 02:09:49;;;;;;;25.43;12.97;;;10.70;90.60;;;;;;5002928;28;20652;-77
2022/01/10 02:12:17;;;;;;;24.20;12.23;;;10.70;90.60;;;;;;5001984;28;20189;-78
2022/01/10 02:14:46;;;;;;;27.03;13.47;;;10.70;90.70;;;;;;5004433;28;20224;-77
2022/01/10 02:17:18;;;;;;;26.70;12.33;;;10.70;90.70;;;;;;5004324;28;20194;-78
2022/01/10 02:19:58;;;;;;;28.17;12.93;;;10.70;90.80;;;;;;4995922;28;20407;-77
2022/01/10 02:22:26;;;;;;;25.83;13.53;;;10.70;90.80;;;;;;4998039;28;20196;-77
2022/01/10 02:24:55;;;;;;;29.13;14.13;;;10.70;90.80;;;;;;5004080;28;20193;-77
2022/01/10 02:27:24;;;;;;;23.10;12.23;;;10.70;90.80;;;;;;5002147;28;20258;-78
2022/01/10 02:29:53;;;;;;;26.50;13.50;;;10.70;90.80;;;;;;5001031;28;20211;-77
2022/01/10 02:32:22;;;;;;;29.47;14.17;;;10.70;90.80;;;;;;5003909;28;20188;-78
2022/01/10 02:34:50;;;;;;;24.63;12.33;;;10.80;90.80;;;;;;5003572;28;20750;-78
2022/01/10 02:37:34;;;;;;;24.30;12.97;;;10.80;90.80;;;;;;4999453;28;20551;-78
2022/01/10 02:40:06;;;;;;;24.10;11.80;;;10.80;90.80;;;;;;4998786;28;20215;-77
2022/01/10 02:42:36;;;;;;;26.47;12.13;;;10.80;90.70;;;;;;5000423;28;20200;-77
2022/01/10 02:45:05;;;;;;;24.73;12.00;;;10.80;90.70;;;;;;5004267;28;20288;-78
2022/01/10 02:47:34;;;;;;;26.73;12.10;;;10.80;90.80;;;;;;5000855;28;20191;-78
2022/01/10 02:50:03;;;;;;;26.57;13.30;;;10.80;90.80;;;;;;4998401;28;20212;-77
2022/01/10 02:52:33;;;;;;;24.50;12.60;;;10.80;90.80;;;;;;5000406;28;20739;-77
2022/01/10 02:55:01;;;;;;;25.80;12.57;;;10.80;90.80;;;;;;5001649;28;20301;-77
2022/01/10 02:57:30;;;;;;;23.50;11.20;;;10.80;90.90;;;;;;5002281;28;22448;-77
2022/01/10 02:59:59;;;;;;;21.17;10.50;;;10.80;90.90;;;;;;5001286;28;20218;-79
2022/01/10 03:02:31;;;;;;;21.23;11.20;;;10.80;90.90;;;;;;5002234;28;20259;-78
2022/01/10 03:05:00;;;;;;;22.08;10.80;;;10.80;90.90;;;;;;5000316;28;20445;-78
2022/01/10 03:07:28;;;;;;;20.43;9.90;;;10.80;90.90;;;;;;4998901;28;20197;-78
2022/01/10 03:09:59;;;;;;;16.37;9.10;;;10.80;91.10;;;;;;5002235;28;20232;-79
2022/01/10 03:12:31;;;;;;;18.47;9.43;;;10.80;91.10;;;;;;4999254;28;20193;-78
2022/01/10 03:15:00;;;;;;;17.57;8.83;;;10.80;91.10;;;;;;5002928;28;20227;-77
2022/01/10 03:17:28;;;;;;;17.67;9.57;;;10.80;91.10;;;;;;5001256;28;20198;-78
2022/01/10 03:19:57;;;;;;;13.97;7.87;;;10.80;91.10;;;;;;4999485;28;20193;-77
2022/01/10 03:22:26;;;;;;;14.50;7.97;;;10.80;91.10;;;;;;4998822;28;20192;-78
2022/01/10 03:24:55;;;;;;;16.27;8.40;;;10.80;91.10;;;;;;5006238;28;20223;-79
2022/01/10 03:27:24;;;;;;;17.70;8.93;;;10.80;91.10;;;;;;5007888;28;20351;-78
2022/01/10 03:29:53;;;;;;;16.50;7.93;;;10.80;91.10;;;;;;5003063;28;20200;-79
2022/01/10 03:32:22;;;;;;;15.40;7.93;;;10.80;91.10;;;;;;5005781;28;20195;-78
2022/01/10 03:34:50;;;;;;;13.77;7.50;;;10.80;91.10;;;;;;5004547;28;20972;-78
2022/01/10 03:37:19;;;;;;;15.63;7.40;;;10.80;91.10;;;;;;5003845;28;20735;-78
2022/01/10 03:39:47;;;;;;;13.10;7.13;;;10.70;91.10;;;;;;5000485;28;20210;-77
2022/01/10 03:42:16;;;;;;;13.83;7.43;;;10.80;91.10;;;;;;4993616;28;20189;-78
2022/01/10 03:44:45;;;;;;;13.40;7.20;;;10.70;91.00;;;;;;5004187;28;20288;-76
2022/01/10 03:47:16;;;;;;;12.40;6.87;;;10.70;91.10;;;;;;5005363;28;20200;-78
2022/01/10 03:49:45;;;;;;;10.83;5.77;;;10.70;91.10;;;;;;4997186;28;20200;-78
2022/01/10 03:52:13;;;;;;;14.13;6.97;;;10.70;91.10;;;;;;5005928;28;20197;-78
2022/01/10 03:54:42;;;;;;;11.63;6.40;;;10.70;91.00;;;;;;5005127;28;20189;-78
2022/01/10 03:57:11;;;;;;;11.87;6.17;;;10.70;91.00;;;;;;5004578;28;20196;-79
2022/01/10 03:59:39;;;;;;;11.30;6.53;;;10.70;91.00;;;;;;5001798;28;20211;-77
2022/01/10 04:02:09;;;;;;;11.27;6.20;;;10.70;91.00;;;;;;5006408;28;20204;-77
2022/01/10 04:04:39;;;;;;;10.33;5.93;;;10.60;90.90;;;;;;5003950;28;20201;-77
2022/01/10 04:07:07;;;;;;;10.40;6.27;;;10.60;90.90;;;;;;4998968;28;20201;-78
2022/01/10 04:09:36;;;;;;;10.53;6.23;;;10.60;90.90;;;;;;5003829;28;20256;-76
2022/01/10 04:12:05;;;;;;;12.13;6.30;;;10.60;90.90;;;;;;5000874;28;20204;-78
2022/01/10 04:14:33;;;;;;;10.10;5.83;;;10.70;90.90;;;;;;5006648;28;20197;-77
2022/01/10 04:17:02;;;;;;;10.27;6.13;;;10.70;90.90;;;;;;5006515;28;20220;-76
2022/01/10 04:19:31;;;;;;;9.80;5.57;;;10.70;90.80;;;;;;5005864;28;20230;-78
2022/01/10 04:22:00;;;;;;;11.87;5.97;;;10.60;90.80;;;;;;5002933;28;20791;-77
2022/01/10 04:24:28;;;;;;;11.57;6.53;;;10.60;90.80;;;;;;5005106;28;20767;-78
2022/01/10 04:26:56;;;;;;;9.70;5.70;;;10.60;90.80;;;;;;5004228;28;20251;-76
2022/01/10 04:29:24;;;;;;;10.40;5.80;;;10.60;90.80;;;;;;5002232;28;20204;-78
2022/01/10 04:31:53;;;;;;;10.90;5.60;;;10.70;90.80;;;;;;5005505;28;20193;-78
2022/01/10 04:34:21;;;;;;;12.80;6.00;;;10.60;90.70;;;;;;5002787;28;20196;-77
2022/01/10 04:36:51;;;;;;;9.93;5.87;;;10.60;90.70;;;;;;5002985;28;20698;-78
2022/01/10 04:39:19;;;;;;;9.63;5.50;;;10.50;90.80;;;;;;5004270;28;20192;-78
2022/01/10 04:41:47;;;;;;;10.73;5.40;;;10.50;90.80;;;;;;4996017;28;20196;-77
2022/01/10 04:44:16;;;;;;;9.60;5.37;;;10.50;90.80;;;;;;5004742;28;20196;-77
2022/01/10 04:46:44;;;;;;;9.53;5.30;;;10.50;90.80;;;;;;5005006;28;20259;-78
2022/01/10 04:49:21;;;;;;;10.90;5.43;;;10.50;90.80;;;;;;5000759;28;20197;-77
2022/01/10 04:51:51;;;;;;;8.83;5.13;;;10.50;90.80;;;;;;5005223;28;20188;-77
2022/01/10 04:54:20;;;;;;;11.33;5.23;;;10.50;90.80;;;;;;5004604;28;20727;-76
2022/01/10 04:56:49;;;;;;;9.53;4.70;;;10.50;90.80;;;;;;5005744;28;20228;-78
2022/01/10 04:59:18;;;;;;;9.67;5.60;;;10.50;90.80;;;;;;5001752;28;20207;-77
2022/01/10 05:01:46;;;;;;;9.63;4.87;;;10.50;90.90;;;;;;5003048;28;20185;-78
2022/01/10 05:04:15;;;;;;;10.10;5.10;;;10.40;90.80;;;;;;5001293;28;20200;-77
2022/01/10 05:06:43;;;;;;;9.03;4.53;;;10.40;90.80;;;;;;5004801;28;20196;-77
2022/01/10 05:09:13;;;;;;;10.37;5.50;;;10.40;90.70;;;;;;5002733;28;20627;-77
2022/01/10 05:11:41;;;;;;;9.70;4.93;;;10.40;90.70;;;;;;5000916;28;20224;-77
2022/01/10 05:14:09;;;;;;;9.02;5.55;;;10.50;90.70;;;;;;4999810;28;21151;-78
2022/01/10 05:16:40;;;;;;;8.17;4.40;;;10.40;90.90;;;;;;5004821;28;20220;-78
2022/01/10 05:19:08;;;;;;;8.57;3.80;;;10.40;90.80;;;;;;5003884;28;20185;-77
2022/01/10 05:21:37;;;;;;;8.13;4.97;;;10.40;90.80;;;;;;5002453;28;20199;-76
2022/01/10 05:24:06;;;;;;;8.50;4.33;;;10.40;90.70;;;;;;5001647;28;20193;-75
2022/01/10 05:26:36;;;;;;;6.93;3.87;;;10.40;90.70;;;;;;5004615;28;20200;-76
2022/01/10 05:29:05;;;;;;;7.50;4.27;;;10.30;90.70;;;;;;5001226;28;20193;-77
2022/01/10 05:31:34;;;;;;;8.23;4.37;;;10.30;90.60;;;;;;5003526;28;20224;-77
2022/01/10 05:34:03;;;;;;;10.50;3.93;;;10.30;90.60;;;;;;4998028;28;20196;-77
2022/01/10 05:36:32;;;;;;;6.27;3.90;;;10.30;90.60;;;;;;5001247;28;20216;-78
2022/01/10 05:39:00;;;;;;;7.33;3.90;;;10.20;90.50;;;;;;5003662;28;20201;-77
2022/01/10 05:41:28;;;;;;;5.53;3.93;;;10.30;90.50;;;;;;4990899;28;20188;-77
2022/01/10 05:43:58;;;;;;;6.17;3.47;;;10.20;90.50;;;;;;5001459;28;20196;-78
2022/01/10 05:46:26;;;;;;;7.00;3.37;;;10.20;90.50;;;;;;5001022;28;20761;-78
2022/01/10 05:49:00;;;;;;;6.10;3.60;;;10.20;90.50;;;;;;4995511;28;20212;-77
2022/01/10 05:51:34;;;;;;;6.30;3.27;;;10.20;90.50;;;;;;5001847;28;20192;-77
2022/01/10 05:54:03;;;;;;;7.03;3.80;;;10.10;90.40;;;;;;5005280;28;20211;-77
2022/01/10 05:56:32;;;;;;;7.03;3.70;;;10.10;90.50;;;;;;4999878;28;20254;-77
2022/01/10 05:59:04;;;;;;;6.20;3.03;;;10.10;90.50;;;;;;5001168;28;20606;-77
2022/01/10 06:01:32;;;;;;;6.27;3.87;;;10.10;90.60;;;;;;5001864;28;20189;-78
2022/01/10 06:04:01;;;;;;;5.87;3.37;;;10.10;90.60;;;;;;5004187;28;20181;-76
2022/01/10 06:06:29;;;;;;;6.53;3.60;;;10.10;90.60;;;;;;5004626;28;20533;-76
2022/01/10 06:08:57;;;;;;;6.53;3.07;;;10.10;90.70;;;;;;5002971;28;20220;-77
2022/01/10 06:11:25;;;;;;;5.33;3.37;;;10.00;90.70;;;;;;5004020;28;20223;-75
2022/01/10 06:13:54;;;;;;;6.57;3.97;;;10.10;90.70;;;;;;5003802;28;20204;-76
2022/01/10 06:16:23;;;;;;;5.53;3.27;;;10.10;90.80;;;;;;5003169;28;20208;-77
2022/01/10 06:18:52;;;;;;;6.53;3.67;;;10.10;90.70;;;;;;5002375;28;20197;-76
2022/01/10 06:21:24;;;;;;;5.07;2.90;;;10.10;90.70;;;;;;4987391;28;20192;-77
2022/01/10 06:23:53;;;;;;;6.73;3.20;;;10.10;90.70;;;;;;5002620;28;20243;-77
2022/01/10 06:26:21;;;;;;;5.53;3.33;;;10.10;90.60;;;;;;5004594;28;20196;-77
2022/01/10 06:28:49;;;;;;;5.80;3.40;;;10.20;90.60;;;;;;5004360;28;20195;-76
2022/01/10 06:31:18;;;;;;;8.13;4.00;;;10.20;90.40;;;;;;5004378;28;20192;-74
2022/01/10 06:33:47;;;;;;;6.57;3.37;;;10.10;90.40;;;;;;5002407;28;20196;-77
2022/01/10 06:36:16;;;;;;;8.10;3.83;;;10.10;90.40;;;;;;4998384;28;20200;-76
2022/01/10 06:38:44;;;;;;;5.80;3.53;;;10.10;90.40;;;;;;5003497;28;20196;-77
2022/01/10 06:41:12;;;;;;;6.37;3.23;;;10.10;90.40;;;;;;5001402;28;20603;-76
2022/01/10 06:43:41;;;;;;;5.97;3.10;;;10.00;90.20;;;;;;5000625;28;20729;-78
2022/01/10 06:46:09;;;;;;;9.67;3.30;;;10.00;90.20;;;;;;5003991;28;20196;-75
2022/01/10 06:48:38;;;;;;;5.37;3.27;;;10.00;90.30;;;;;;5002521;28;20861;-75
2022/01/10 06:51:08;;;;;;;6.40;3.23;;;10.00;90.30;;;;;;5002585;28;20200;-76
2022/01/10 06:53:36;;;;;;;5.07;2.87;;;10.00;90.30;;;;;;5001352;28;20196;-77
2022/01/10 06:56:04;;;;;;;5.83;3.27;;;10.00;90.30;;;;;;5002339;28;20199;-77
2022/01/10 06:58:33;;;;;;;4.90;2.77;;;10.00;90.30;;;;;;4999551;28;20477;-76
2022/01/10 07:01:01;;;;;;;6.23;3.40;;;9.90;90.30;;;;;;5002491;28;20770;-76
2022/01/10 07:03:30;;;;;;;6.00;3.23;;;9.90;90.20;;;;;;5002186;28;20192;-76
2022/01/10 07:05:58;;;;;;;7.33;3.40;;;10.00;90.30;;;;;;5001363;28;20226;-78
2022/01/10 07:08:28;;;;;;;6.10;3.17;;;10.00;90.20;;;;;;5004229;28;20200;-76
2022/01/10 07:10:56;;;;;;;6.67;3.23;;;10.00;90.20;;;;;;5005786;28;20351;-77
2022/01/10 07:13:24;;;;;;;6.40;3.37;;;9.90;90.30;;;;;;5002955;28;20192;-76
2022/01/10 07:15:53;;;;;;;7.33;4.10;;;10.00;90.30;;;;;;5003544;28;20208;-76
2022/01/10 07:18:21;;;;;;;7.77;3.50;;;10.00;90.30;;;;;;5002103;28;20216;-77
2022/01/10 07:20:49;;;;;;;5.83;3.60;;;10.00;90.20;;;;;;5004111;28;20196;-75
2022/01/10 07:23:18;;;;;;;7.43;3.95;;;10.00;90.10;;;;;;5002495;28;20440;-76
2022/01/10 07:25:47;;;;;;;8.10;3.73;;;10.00;90.20;;;;;;5003928;28;20262;-77
2022/01/10 07:28:16;;;;;;;6.53;3.30;;;10.00;90.20;;;;;;5000113;28;20200;-74
2022/01/10 07:30:44;;;;;;;6.43;3.17;;;10.00;90.10;;;;;;5003725;28;20196;-75
2022/01/10 07:33:13;;;;;;;7.10;3.27;;;10.00;90.10;;;;;;5001475;28;20205;-76
2022/01/10 07:35:48;;;;;;;7.50;3.43;;;10.00;90.00;;;;;;5000976;28;20195;-79
2022/01/10 07:38:16;;;;;;;5.80;3.27;;;10.00;90.10;;;;;;5001037;28;20228;-77
2022/01/10 07:40:44;;;;;;;6.40;3.43;;;10.00;90.00;;;;;;4999173;28;20203;-78
2022/01/10 07:43:19;;;;;;;6.83;3.57;;;10.00;90.10;;;;;;5003165;28;20195;-76
2022/01/10 07:45:47;;;;;;;10.83;3.50;;;9.90;90.10;;;;;;5003564;28;20210;-77
2022/01/10 07:48:17;;;;;;;5.03;3.03;;;9.90;90.20;;;;;;5000446;28;20861;-76
2022/01/10 07:50:46;;;;;;;6.93;2.83;;;10.00;90.30;;;;;;5001374;28;20795;-76
2022/01/10 07:53:14;;;;;;;5.63;3.03;;;10.00;90.30;;;;;;5001467;28;20189;-77
2022/01/10 07:55:42;;;;;;;6.20;2.97;;;9.90;90.30;;;;;;5002215;28;20192;-77
2022/01/10 07:58:14;;;;;;;4.73;2.47;;;10.00;90.40;;;;;;5007044;28;20227;-75
2022/01/10 08:00:43;;;;;;;6.10;2.60;;;9.90;90.10;;;;;;5002977;28;20192;-77
2022/01/10 08:03:12;;;;;;;5.13;2.70;;;10.00;90.20;;;;;;5001625;28;20267;-75
2022/01/10 08:05:41;;;;;;;4.20;2.60;;;10.00;90.10;;;;;;4999437;28;20192;-75
2022/01/10 08:08:09;;;;;;;4.43;2.60;;;10.00;90.20;;;;;;5003065;28;20197;-76
2022/01/10 08:10:37;;;;;;;4.87;2.53;;;10.00;90.20;;;;;;5005903;28;20233;-74
2022/01/10 08:13:08;;;;;;;4.33;2.57;;;10.00;90.10;;;;;;5006957;28;20208;-75
2022/01/10 08:15:36;;;;;;;3.95;2.30;;;10.00;90.10;;;;;;5004190;28;21113;-75
2022/01/10 08:18:08;;;;;;;3.73;2.60;;;10.00;90.10;;;;;;5005560;28;20686;-76
2022/01/10 08:20:36;;;;;;;4.43;2.30;;;10.00;90.10;;;;;;5006238;28;20193;-75
2022/01/10 08:23:05;;;;;;;5.07;2.43;;;10.10;90.10;;;;;;4991292;28;20223;-76
2022/01/10 08:25:33;;;;;;;5.90;2.60;;;10.10;89.90;;;;;;5004746;28;20271;-75
2022/01/10 08:28:02;;;;;;;3.73;2.30;;;10.10;90.00;;;;;;5005594;28;20196;-76
2022/01/10 08:30:31;;;;;;;4.20;2.50;;;10.10;89.80;;;;;;5005956;28;20208;-75
2022/01/10 08:32:59;;;;;;;5.63;2.40;;;10.10;90.00;;;;;;5005490;28;20196;-75
2022/01/10 08:35:29;;;;;;;4.67;2.73;;;10.10;89.80;;;;;;5004399;28;20180;-74
2022/01/10 08:37:57;;;;;;;4.17;2.10;;;10.10;89.70;;;;;;5005667;28;20315;-75
2022/01/10 08:40:30;;;;;;;4.23;2.43;;;10.20;90.00;;;;;;5005338;28;20189;-75
2022/01/10 08:43:00;;;;;;;4.30;2.10;;;10.20;89.80;;;;;;5005160;28;20193;-74
2022/01/10 08:45:28;;;;;;;6.73;2.73;;;10.20;89.20;;;;;;5003001;28;20196;-75
2022/01/10 08:47:56;;;;;;;4.63;2.57;;;10.20;89.50;;;;;;5003642;28;20192;-76
2022/01/10 08:50:26;;;;;;;6.13;2.13;;;10.30;89.50;;;;;;5004697;28;20197;-75
2022/01/10 08:52:56;;;;;;;5.90;2.40;;;10.20;89.40;;;;;;5005130;28;20208;-74
2022/01/10 08:55:24;;;;;;;5.10;2.70;;;10.20;89.10;;;;;;5005288;28;20866;-75
2022/01/10 08:57:52;;;;;;;4.73;2.00;;;10.20;89.10;;;;;;5000762;28;20231;-76
2022/01/10 09:00:21;;;;;;;5.60;2.70;;;10.20;88.70;;;;;;5002943;28;20196;-75
2022/01/10 09:02:49;;;;;;;3.87;2.47;;;10.20;88.70;;;;;;5004089;28;20209;-75
2022/01/10 09:05:17;;;;;;;5.07;2.70;;;10.10;88.90;;;;;;5001641;28;20224;-75
2022/01/10 09:07:46;;;;;;;5.37;2.57;;;10.10;89.00;;;;;;5002253;28;20251;-75
2022/01/10 09:10:16;;;;;;;4.23;1.87;;;10.10;88.90;;;;;;5003915;28;20286;-75
2022/01/10 09:12:44;;;;;;;6.50;2.40;;;10.10;89.10;;;;;;5004885;28;20203;-75
2022/01/10 09:15:14;;;;;;;6.33;2.80;;;10.00;89.20;;;;;;5004937;28;20200;-75
2022/01/10 09:17:42;;;;;;;4.47;2.47;;;10.00;89.00;;;;;;5003442;28;20272;-75
2022/01/10 09:20:11;;;;;;;6.97;2.83;;;10.00;89.30;;;;;;5004020;28;20203;-74
2022/01/10 09:22:40;;;;;;;4.27;2.43;;;10.00;89.30;;;;;;5004278;28;20669;-74
2022/01/10 09:25:09;;;;;;;5.17;2.90;;;10.00;89.40;;;;;;5003254;28;20224;-75
2022/01/10 09:27:39;;;;;;;4.03;2.50;;;10.00;89.10;;;;;;5004614;28;20188;-74
2022/01/10 09:30:08;;;;;;;5.03;2.30;;;10.00;89.30;;;;;;5004135;28;20185;-74
2022/01/10 09:32:36;;;;;;;3.23;2.00;;;10.10;89.50;;;;;;5003596;28;20181;-75
2022/01/10 09:35:06;;;;;;;6.70;2.77;;;10.00;89.20;;;;;;5004724;28;20199;-74
2022/01/10 09:37:34;;;;;;;5.03;2.40;;;10.00;89.20;;;;;;5002381;28;20192;-74
2022/01/10 09:40:09;;;;;;;11.07;3.40;;;10.10;89.20;;;;;;5004237;28;20221;-73
2022/01/10 09:42:39;;;;;;;5.47;3.53;;;10.10;89.20;;;;;;5003835;28;20188;-74
2022/01/10 09:45:08;;;;;;;6.30;3.00;;;10.10;89.00;;;;;;5003839;28;20189;-73
2022/01/10 09:47:37;;;;;;;6.37;2.77;;;10.00;88.70;;;;;;5004049;28;20196;-73
2022/01/10 09:50:08;;;;;;;6.87;3.10;;;10.00;88.80;;;;;;5003617;28;20214;-74
2022/01/10 09:52:38;;;;;;;5.20;2.90;;;9.90;88.60;;;;;;5003362;28;20196;-75
2022/01/10 09:55:08;;;;;;;5.57;3.17;;;9.90;89.00;;;;;;4995717;28;20185;-75
2022/01/10 09:57:38;;;;;;;4.57;2.70;;;9.90;89.10;;;;;;5003079;28;20197;-75
2022/01/10 10:00:07;;;;;;;5.73;2.87;;;9.90;89.40;;;;;;5003703;28;20216;-74
2022/01/10 10:02:37;;;;;;;6.53;3.53;;;10.00;89.40;;;;;;5003828;28;20204;-75
2022/01/10 10:05:07;;;;;;;7.70;3.20;;;10.00;89.20;;;;;;5001340;28;20243;-75
2022/01/10 10:07:37;;;;;;;4.90;2.97;;;9.90;89.10;;;;;;5004627;28;20252;-74
2022/01/10 10:10:08;;;;;;;6.77;2.90;;;10.00;89.20;;;;;;5003482;28;20232;-74
2022/01/10 10:12:40;;;;;;;5.90;3.00;;;10.10;89.30;;;;;;5004358;28;20193;-75
2022/01/10 10:15:11;;;;;;;6.17;3.47;;;10.10;88.90;;;;;;5002152;28;20260;-74
2022/01/10 10:17:41;;;;;;;8.40;3.97;;;10.00;88.50;;;;;;5003843;28;20196;-74
2022/01/10 10:20:11;;;;;;;9.80;3.33;;;10.10;88.60;;;;;;5004172;28;20854;-74
2022/01/10 10:23:00;;;;;;;8.77;3.73;;;10.10;88.60;;;;;;5000871;28;20275;-74
2022/01/10 10:25:28;;;;;;;6.37;3.43;;;10.10;89.40;;;;;;5002148;28;20189;-74
2022/01/10 10:27:58;;;;;;;6.77;3.50;;;10.00;88.90;;;;;;5003686;28;20331;-74
2022/01/10 10:30:29;;;;;;;8.13;3.33;;;10.00;89.20;;;;;;4996917;28;20192;-75
2022/01/10 10:33:12;;;;;;;7.33;3.70;;;10.00;89.10;;;;;;4997620;28;20730;-74
2022/01/10 10:35:40;;;;;;;7.90;3.73;;;10.00;89.30;;;;;;4998773;28;20674;-75
2022/01/10 10:38:09;;;;;;;6.00;3.37;;;10.00;89.20;;;;;;4998537;28;20203;-74
2022/01/10 10:40:41;;;;;;;7.37;4.07;;;10.00;89.40;;;;;;5004446;28;20212;-75
2022/01/10 10:43:11;;;;;;;7.87;3.63;;;10.00;89.20;;;;;;5003175;28;20658;-74
2022/01/10 10:45:40;;;;;;;6.67;3.83;;;10.00;89.30;;;;;;5002573;28;20598;-76
2022/01/10 10:48:10;;;;;;;7.23;4.07;;;10.00;89.20;;;;;;5002729;28;20189;-73
2022/01/10 10:50:42;;;;;;;5.87;3.27;;;10.00;89.30;;;;;;5002649;28;20193;-73
2022/01/10 10:53:13;;;;;;;8.37;4.40;;;10.00;89.20;;;;;;5001847;28;20185;-75
2022/01/10 10:55:43;;;;;;;10.07;4.30;;;10.10;89.20;;;;;;5001392;28;20191;-76
2022/01/10 10:58:14;;;;;;;8.77;5.03;;;10.00;88.90;;;;;;5004589;28;20199;-73
2022/01/10 11:00:42;;;;;;;10.07;5.27;;;10.00;88.80;;;;;;4992082;28;20304;-73
2022/01/10 11:03:12;;;;;;;10.80;4.97;;;10.10;88.80;;;;;;4996826;28;20540;-73
2022/01/10 11:05:44;;;;;;;8.60;4.83;;;10.10;88.60;;;;;;5002743;28;20243;-73
2022/01/10 11:11:34;;;;;;;8.03;4.50;;;10.10;88.30;;;;;;4998243;28;20278;-73
2022/01/10 11:14:05;;;;;;;7.87;4.07;;;10.10;88.60;;;;;;5002623;28;20197;-73
2022/01/10 11:16:37;;;;;;;9.60;5.28;;;10.10;88.20;;;;;;5002122;28;20435;-73
2022/01/10 11:19:13;;;;;;;10.20;4.20;;;10.20;88.50;;;;;;5002844;28;20212;-74
2022/01/10 11:21:41;;;;;;;6.43;4.20;;;10.20;88.30;;;;;;5001723;28;20196;-75
2022/01/10 11:24:09;;;;;;;8.37;4.77;;;10.30;88.30;;;;;;5002988;28;20192;-74
2022/01/10 11:26:39;;;;;;;9.00;5.00;;;10.30;88.00;;;;;;5002766;28;20777;-74
2022/01/10 11:29:10;;;;;;;6.90;4.30;;;10.30;87.30;;;;;;5002458;28;20773;-75
2022/01/10 11:31:41;;;;;;;8.93;5.43;;;10.30;88.10;;;;;;5004114;28;20197;-74
2022/01/10 11:34:12;;;;;;;9.33;4.80;;;10.30;88.00;;;;;;5002307;28;20196;-74
2022/01/10 11:36:47;;;;;;;10.73;5.00;;;10.20;88.20;;;;;;5002249;28;20211;-74
2022/01/10 11:39:15;;;;;;;7.80;4.77;;;10.20;88.20;;;;;;5002443;28;20218;-74
2022/01/10 11:41:44;;;;;;;9.77;5.30;;;10.10;88.20;;;;;;4999984;28;20201;-75
2022/01/10 11:44:14;;;;;;;11.87;5.57;;;10.10;88.30;;;;;;5002125;28;20192;-74
2022/01/10 11:46:44;;;;;;;10.43;4.97;;;10.10;88.50;;;;;;5005484;28;20232;-74
2022/01/10 11:49:18;;;;;;;7.30;4.23;;;10.10;88.50;;;;;;5003724;28;20224;-73
2022/01/10 11:52:00;;;;;;;8.67;4.63;;;10.10;88.30;;;;;;4996289;28;20180;-75
2022/01/10 11:54:30;;;;;;;11.50;4.60;;;10.10;88.00;;;;;;5007450;28;20189;-74
2022/01/10 11:57:00;;;;;;;10.93;5.40;;;10.10;87.50;;;;;;5006530;28;20185;-75
2022/01/10 11:59:31;;;;;;;10.30;5.20;;;10.10;86.90;;;;;;5006322;28;20213;-74
2022/01/10 12:02:03;;;;;;;8.93;4.67;;;10.10;87.30;;;;;;5006662;28;20183;-74
2022/01/10 12:04:35;;;;;;;12.03;4.77;;;10.10;86.60;;;;;;5007018;28;20651;-74
2022/01/10 12:07:04;;;;;;;11.70;5.27;;;10.10;86.30;;;;;;5005360;28;20237;-75
2022/01/10 12:09:33;;;;;;;7.93;4.83;;;10.10;86.70;;;;;;5000974;28;20189;-73
2022/01/10 12:12:09;;;;;;;8.87;4.47;;;10.10;86.30;;;;;;5005070;28;20201;-72
2022/01/10 12:14:41;;;;;;;11.40;4.70;;;10.00;85.80;;;;;;5007048;28;20214;-74
2022/01/10 12:17:11;;;;;;;8.43;4.43;;;10.00;86.00;;;;;;5002167;28;20197;-73
2022/01/10 12:19:40;;;;;;;9.53;4.47;;;9.90;85.80;;;;;;5002723;28;20307;-75
2022/01/10 12:22:10;;;;;;;9.63;4.63;;;10.00;86.90;;;;;;5006273;28;20198;-74
2022/01/10 12:24:40;;;;;;;7.83;4.00;;;9.90;86.00;;;;;;5007499;28;20351;-74
2022/01/10 12:27:10;;;;;;;7.17;4.13;;;9.90;85.80;;;;;;5006116;28;20258;-74
2022/01/10 12:29:45;;;;;;;8.23;4.30;;;9.80;85.70;;;;;;5003474;28;20364;-73
2022/01/10 12:32:15;;;;;;;6.70;3.80;;;9.80;85.70;;;;;;5005113;28;20195;-74
2022/01/10 12:34:45;;;;;;;7.83;4.20;;;9.80;85.40;;;;;;5006496;28;20208;-74
2022/01/10 12:37:14;;;;;;;11.10;4.63;;;9.80;85.80;;;;;;5003824;28;20224;-74
2022/01/10 12:39:42;;;;;;;7.83;4.30;;;9.80;86.10;;;;;;5003756;28;20188;-75
2022/01/10 12:42:12;;;;;;;9.23;4.77;;;9.90;85.90;;;;;;5002437;28;20188;-74
2022/01/10 12:44:40;;;;;;;7.17;4.17;;;9.90;85.20;;;;;;5005683;28;20200;-75
2022/01/10 12:47:10;;;;;;;9.60;4.87;;;9.80;84.90;;;;;;5005354;28;20201;-75
2022/01/10 12:49:39;;;;;;;9.90;4.60;;;9.80;85.20;;;;;;5003210;28;20197;-75
2022/01/10 12:52:08;;;;;;;10.47;4.53;;;9.70;85.20;;;;;;4997521;28;20200;-75
2022/01/10 12:54:36;;;;;;;9.90;5.00;;;9.70;85.40;;;;;;5002783;28;20202;-74
2022/01/10 12:57:05;;;;;;;8.33;4.30;;;9.70;85.30;;;;;;5003520;28;20212;-76
2022/01/10 12:59:36;;;;;;;9.23;4.87;;;9.70;85.60;;;;;;5006032;28;20196;-75
2022/01/10 13:02:06;;;;;;;9.63;4.90;;;9.60;85.80;;;;;;5006702;28;20195;-75
2022/01/10 13:04:39;;;;;;;9.87;5.13;;;9.60;85.70;;;;;;5005767;28;20212;-75